Latest Weather Observations for Lameroo AWS

IDS60801

Issued at 12:31 pm CST Saturday 1 August 2015 (issued every 30 minutes, with the page automatically refreshed every 10 minutes)

About weather observations | Map of weather stations | Latest weather observations for SA | Other Formats
Station Details ID: 025562 Name: AUSTIN PLAINS Lat: -35.38 Lon: 140.54 Height: 110.08 m
Data from the previous 72 hours. | See also: Recent months at Lameroo AWS
Date/Time
CST
Temp
°C
App
Temp
°C
Dew
Point
Rel
Hum
%
Delta-T
°C
Wind Press
QNH
hPa
Press
MSL
hPa
Rain
since 9 am
mm
Dir
 
Spd
km/h
Gust
km/h
Spd
kts
Gust
kts
01/12:30pm 9.9 8.2 7.5 85 1.1 SSE 6 6 3 3 1016.1 1016.2 1.4
01/12:00pm 10.2 8.9 7.8 85 1.2 SSW 4 6 2 3 1016.7 1016.8 1.0
01/11:30am 10.4 8.6 8.0 85 1.2 S 7 11 4 6 1016.4 1016.5 0.6
01/11:00am 10.2 7.8 8.5 89 0.8 SSW 11 17 6 9 1016.7 1016.8 0.6
01/10:30am 9.9 6.6 8.2 89 0.8 SSW 15 20 8 11 1016.8 1016.9 0.4
01/10:00am 9.7 6.2 8.8 94 0.4 S 17 22 9 12 1015.8 1015.9 0.4
01/09:30am 9.7 6.4 9.7 100 0.0 S 17 22 9 12 1016.0 1016.1 0.4
01/09:00am 9.2 5.4 9.2 100 0.0 S 19 24 10 13 1016.0 1016.1 2.4
01/08:30am 9.4 5.0 9.1 98 0.1 S 22 30 12 16 1016.1 1016.2 1.4
01/08:00am 10.0 5.1 10.0 100 0.0 S 26 32 14 17 1015.2 1015.3 1.2
01/07:30am 10.5 7.5 10.5 100 0.0 SW 17 24 9 13 1014.6 1014.7 1.0
01/07:00am 10.5 7.8 10.5 100 0.0 SW 15 19 8 10 1013.9 1014.0 0.8
01/06:30am 10.7 6.4 10.7 100 0.0 SW 24 32 13 17 1013.3 1013.5 0.6
01/06:00am 11.9 6.4 11.9 100 0.0 WSW 32 41 17 22 1012.7 1012.9 0.6
01/05:44am 13.1 8.8 13.1 100 0.0 WNW 28 46 15 25 1012.1 1012.3 0.2
01/05:30am 13.1 9.5 13.1 100 0.0 NW 24 32 13 17 1011.9 1012.1 0.0
01/05:00am 13.7 9.6 11.4 86 1.2 NW 24 32 13 17 1011.4 1011.6 0.0
01/04:30am 13.6 9.4 11.1 85 1.3 WNW 24 33 13 18 1011.3 1011.5 0.0
01/04:00am 13.7 9.1 11.0 84 1.4 NW 26 33 14 18 1011.0 1011.2 0.0
01/03:30am 13.4 9.1 10.8 84 1.4 NW 24 35 13 19 1011.1 1011.3 0.0
01/03:00am 13.0 8.9 10.0 82 1.6 NW 22 28 12 15 1011.1 1011.3 0.0
01/02:30am 12.9 8.3 9.5 80 1.7 NW 24 33 13 18 1011.6 1011.8 0.0
01/02:00am 12.6 7.9 9.1 79 1.8 NW 24 30 13 16 1011.8 1012.0 0.0
01/01:30am 12.2 7.6 8.3 77 1.9 NW 22 28 12 15 1011.9 1012.1 0.0
01/01:00am 11.8 7.7 7.7 76 2.0 NNW 19 24 10 13 1012.1 1012.3 0.0
01/12:30am 11.9 7.8 8.0 77 1.9 NNW 19 26 10 14 1012.4 1012.6 0.0
01/12:00am 9.9 7.2 7.5 85 1.2 N 11 15 6 8 1012.6 1012.8 0.0
 
Date/Time
CST
Temp
°C
App
Temp
°C
Dew
Point
Rel
Hum
%
Delta-T
°C
Wind Press
QNH
hPa
Press
MSL
hPa
Rain
since 9 am
mm
Dir
 
Spd
km/h
Gust
km/h
Spd
kts
Gust
kts
31/11:30pm 9.7 6.9 7.1 84 1.2 N 11 13 6 7 1013.0 1013.2 0.0
31/11:00pm 9.8 7.0 6.9 82 1.4 N 11 13 6 7 1013.3 1013.5 0.0
31/10:30pm 9.6 6.8 6.9 83 1.3 N 11 13 6 7 1013.8 1013.9 0.0
31/10:00pm 9.5 7.1 6.9 84 1.2 N 9 11 5 6 1014.2 1014.3 0.0
31/09:30pm 10.3 7.9 7.2 81 1.5 N 9 13 5 7 1014.8 1014.9 0.0
31/09:00pm 10.4 8.0 7.1 80 1.6 N 9 13 5 7 1014.9 1015.0 0.0
31/08:30pm 10.1 7.4 7.3 83 1.3 N 11 13 6 7 1014.9 1015.0 0.0
31/08:00pm 11.0 9.8 7.9 81 1.5 NNE 4 7 2 4 1015.0 1015.1 0.0
31/07:30pm 10.9 8.7 7.8 81 1.5 NNE 9 11 5 6 1015.1 1015.2 0.0
31/07:00pm 11.2 9.0 7.9 80 1.6 NNE 9 9 5 5 1015.2 1015.3 0.0
31/06:30pm 11.6 8.6 7.9 78 1.8 NNE 13 13 7 7 1015.2 1015.3 0.0
31/06:00pm 11.7 10.1 7.8 77 1.9 N 6 9 3 5 1015.4 1015.5 0.0
31/05:30pm 12.6 10.4 7.7 72 2.4 NNW 9 13 5 7 1015.6 1015.7 0.0
31/05:00pm 13.1 10.1 7.5 69 2.8 N 13 17 7 9 1015.3 1015.4 0.0
31/04:30pm 13.4 9.9 7.4 67 2.9 N 15 20 8 11 1015.6 1015.7 0.0
31/04:00pm 13.6 9.8 7.4 66 3.0 NNW 17 24 9 13 1015.9 1016.0 0.0
31/03:30pm 13.1 8.7 6.7 65 3.1 N 19 24 10 13 1016.4 1016.5 0.0
31/03:00pm 12.7 7.6 6.1 64 3.1 N 22 30 12 16 1016.5 1016.6 0.0
31/02:30pm 12.4 6.9 5.8 64 3.1 NNW 24 30 13 16 1016.9 1017.1 0.0
31/02:00pm 12.7 7.5 5.4 61 3.4 NNW 22 32 12 17 1017.3 1017.5 0.0
31/01:30pm 12.9 7.8 6.0 63 3.3 N 22 30 12 16 1018.1 1018.3 0.0
31/01:00pm 12.6 7.4 5.5 62 3.3 NNW 22 32 12 17 1018.7 1018.9 0.0
31/12:30pm 12.4 7.9 6.2 66 2.9 N 19 24 10 13 1019.3 1019.5 0.0
31/12:00pm 11.3 6.6 5.0 65 2.9 N 19 24 10 13 1020.2 1020.4 0.0
31/11:30am 11.0 6.2 4.5 64 2.9 NNE 19 32 10 17 1020.6 1020.8 0.0
31/11:00am 10.3 5.8 6.1 75 2.0 NNE 19 26 10 14 1021.2 1021.4 0.0
31/10:30am 9.6 5.6 6.7 82 1.4 NNE 17 20 9 11 1021.9 1022.1 0.0
31/10:00am 7.9 4.9 6.0 88 0.9 NE 11 17 6 9 1022.1 1022.3 0.0
31/09:30am 6.3 4.1 6.3 100 0.0 NE 7 9 4 5 1022.3 1022.5 0.0
31/09:00am 4.4 1.8 4.4 100 0.0 NNE 7 9 4 5 1022.6 1022.8 1.2
31/08:30am 3.0 - - - - NNE 7 9 4 5 1022.5 1022.7 1.2
31/08:00am 1.6 - - - - N 9 9 5 5 1022.4 1022.6 1.2
31/07:30am 1.1 - - - - NNE 7 9 4 5 1022.3 1022.5 1.2
31/07:00am 1.0 - - - - NNE 6 7 3 4 1022.1 1022.3 1.2
31/06:30am 0.2 - - - - ESE 4 6 2 3 1021.9 1022.1 1.2
31/06:00am 0.9 - - - - ESE 6 6 3 3 1021.6 1021.8 1.2
31/05:30am 0.6 -2.4 0.6 100 0.0 SE 6 7 3 4 1021.2 1021.4 1.2
31/05:00am 2.9 0.6 2.9 100 0.0 SSW 4 6 2 3 1021.4 1021.6 1.2
31/04:30am 3.9 0.9 3.9 100 0.0 SSW 9 11 5 6 1021.5 1021.7 1.2
31/04:00am 3.2 0.0 3.2 100 0.0 SSW 9 9 5 5 1021.4 1021.6 1.2
31/03:30am 3.4 0.6 3.4 100 0.0 SSW 7 9 4 5 1021.5 1021.7 1.2
31/03:00am 3.1 0.5 3.1 100 0.0 WSW 6 7 3 4 1021.5 1021.7 1.2
31/02:30am 3.8 1.3 3.8 100 0.0 SW 6 7 3 4 1021.5 1021.7 1.0
31/02:00am 3.9 1.2 3.9 100 0.0 WSW 7 7 4 4 1021.7 1021.9 1.0
31/01:30am 4.1 1.5 4.1 100 0.0 W 7 7 4 4 1021.5 1021.7 1.0
31/01:00am 4.8 1.9 4.8 100 0.0 SW 9 9 5 5 1021.5 1021.7 1.0
31/12:30am 5.6 2.9 5.6 100 0.0 SW 9 11 5 6 1021.6 1021.8 1.0
31/12:00am 5.6 2.5 5.6 100 0.0 SW 11 13 6 7 1021.8 1022.0 1.0
 
Date/Time
CST
Temp
°C
App
Temp
°C
Dew
Point
Rel
Hum
%
Delta-T
°C
Wind Press
QNH
hPa
Press
MSL
hPa
Rain
since 9 am
mm
Dir
 
Spd
km/h
Gust
km/h
Spd
kts
Gust
kts
30/11:30pm 6.8 4.7 6.8 100 0.0 WSW 7 9 4 5 1021.8 1022.0 1.0
30/11:00pm 7.5 5.6 7.5 100 0.0 WSW 7 9 4 5 1021.6 1021.8 1.0
30/10:30pm 7.9 5.7 7.9 100 0.0 WSW 9 11 5 6 1021.8 1022.0 1.0
30/10:00pm 7.9 6.1 7.9 100 0.0 WSW 7 9 4 5 1021.3 1021.5 1.0
30/09:30pm 9.2 7.3 9.2 100 0.0 SW 9 11 5 6 1021.1 1021.3 1.0
30/09:00pm 9.5 7.3 9.5 100 0.0 SW 11 13 6 7 1020.6 1020.8 1.0
30/08:30pm 9.7 6.8 9.7 100 0.0 SW 15 20 8 11 1020.1 1020.3 1.0
30/08:00pm 9.8 6.0 9.8 100 0.0 SW 20 26 11 14 1020.0 1020.2 0.8
30/07:37pm 10.4 5.2 10.4 100 0.0 WSW 28 48 15 26 1019.5 1019.7 0.4
30/07:30pm 10.7 6.4 10.7 100 0.0 WSW 24 30 13 16 1019.4 1019.6 0.4
30/07:00pm 11.5 8.2 8.0 79 1.7 WNW 15 19 8 10 1018.8 1019.0 0.0
30/06:30pm 11.2 7.8 7.5 78 1.8 WNW 15 19 8 10 1018.3 1018.5 0.0
30/06:00pm 12.3 8.1 7.6 73 2.3 WNW 19 26 10 14 1018.0 1018.2 0.0
30/05:30pm 13.0 8.6 7.2 68 2.8 W 20 26 11 14 1017.6 1017.8 0.0
30/05:00pm 13.7 8.2 5.8 59 3.8 W 24 41 13 22 1017.2 1017.4 0.0
30/04:30pm 14.4 8.1 5.7 56 4.1 W 28 39 15 21 1016.8 1017.0 0.0
30/04:00pm 15.4 8.3 5.3 51 4.8 WNW 32 44 17 24 1016.3 1016.4 0.0
30/03:30pm 15.9 8.2 5.2 49 5.1 WNW 35 46 19 25 1015.9 1016.0 0.0
30/03:00pm 16.5 9.2 5.5 48 5.3 WNW 33 50 18 27 1016.0 1016.1 0.0
30/02:54pm 15.7 8.7 4.1 46 5.4 WNW 30 50 16 27 1015.9 1016.0 0.0
30/02:30pm 15.0 7.4 3.8 47 5.2 WNW 33 43 18 23 1016.2 1016.3 0.0
30/02:00pm 15.2 7.5 2.4 42 5.7 WNW 32 44 17 24 1016.3 1016.4 0.0
30/01:30pm 14.6 8.5 4.9 52 4.6 NW 26 33 14 18 1016.2 1016.3 0.0
30/01:00pm 13.8 6.7 3.6 50 4.6 NNW 30 39 16 21 1016.5 1016.6 0.0
30/12:30pm 12.9 7.4 4.1 55 4.0 NNW 22 33 12 18 1017.1 1017.3 0.0
30/12:00pm 11.6 6.1 4.1 60 3.4 NNW 22 35 12 19 1017.8 1018.0 0.0
30/11:30am 11.3 6.9 5.0 65 2.9 N 17 24 9 13 1018.4 1018.6 0.0
30/11:00am 10.3 3.6 3.8 64 2.9 N 28 33 15 18 1018.2 1018.4 0.0
30/10:30am 8.9 2.9 3.5 69 2.3 N 24 32 13 17 1018.6 1018.8 0.0
30/10:00am 8.4 2.4 3.5 71 2.1 N 24 33 13 18 1018.8 1019.0 0.0
30/09:30am 7.5 1.6 3.7 77 1.6 NNE 24 32 13 17 1019.3 1019.5 0.0
30/09:00am 6.9 1.9 3.7 80 1.4 N 19 24 10 13 1020.1 1020.3 0.4
30/08:30am 6.6 2.0 3.6 81 1.3 N 17 22 9 12 1020.5 1020.7 0.2
30/08:00am 6.7 0.3 3.0 77 1.6 N 26 32 14 17 1020.3 1020.5 0.0
30/07:30am 7.2 1.4 2.1 70 2.1 N 22 28 12 15 1019.9 1020.1 0.0
30/07:00am 6.6 1.2 2.3 74 1.8 N 20 26 11 14 1019.8 1020.0 0.0
30/06:30am 6.1 0.7 2.2 76 1.6 N 20 26 11 14 1019.8 1020.0 0.0
30/06:00am 6.4 1.0 2.5 76 1.6 N 20 28 11 15 1019.8 1020.0 0.0
30/05:30am 6.6 1.4 2.7 76 1.6 N 19 24 10 13 1020.2 1020.4 0.0
30/05:00am 6.5 1.7 2.8 77 1.5 N 17 20 9 11 1021.1 1021.3 0.0
30/04:30am 6.7 1.9 2.6 75 1.7 N 17 20 9 11 1021.2 1021.4 0.0
30/04:00am 6.3 1.5 2.8 78 1.5 N 17 20 9 11 1021.3 1021.5 0.0
30/03:30am 5.9 2.7 2.9 81 1.2 NNE 9 13 5 7 1021.6 1021.8 0.0
30/03:00am 5.3 1.6 2.5 82 1.1 NNE 11 15 6 8 1022.1 1022.3 0.0
30/02:30am 5.3 0.9 2.5 82 1.1 N 15 20 8 11 1022.6 1022.8 0.0
30/02:00am 4.2 0.1 2.2 87 0.8 N 13 17 7 9 1022.9 1023.1 0.0
30/01:30am 4.1 -0.4 2.1 87 0.8 N 15 19 8 10 1023.0 1023.2 0.0
30/01:00am 4.8 -0.4 2.3 84 1.0 NNE 19 22 10 12 1023.0 1023.2 0.0
30/12:30am 5.2 0.4 2.4 82 1.1 N 17 20 9 11 1023.8 1023.9 0.0
30/12:00am 5.4 0.2 2.6 82 1.1 NNE 19 20 10 11 1024.0 1024.1 0.0
 
Date/Time
CST
Temp
°C
App
Temp
°C
Dew
Point
Rel
Hum
%
Delta-T
°C
Wind Press
QNH
hPa
Press
MSL
hPa
Rain
since 9 am
mm
Dir
 
Spd
km/h
Gust
km/h
Spd
kts
Gust
kts
29/11:30pm 5.9 0.5 2.7 80 1.3 N 20 22 11 12 1024.5 1024.7 0.0
29/11:00pm 5.3 0.5 2.8 84 1.0 NNE 17 19 9 10 1024.9 1025.1 0.0
29/10:30pm 6.4 1.7 3.2 80 1.3 N 17 22 9 12 1025.3 1025.5 0.0
29/10:00pm 6.6 2.0 3.6 81 1.3 NNE 17 22 9 12 1025.6 1025.8 0.0
29/09:30pm 6.7 2.4 3.5 80 1.4 NNE 15 19 8 10 1026.0 1026.2 0.0
29/09:00pm 6.9 2.6 3.5 79 1.4 NNE 15 19 8 10 1026.2 1026.4 0.0
29/08:30pm 8.0 3.4 3.7 74 1.8 N 17 22 9 12 1026.5 1026.7 0.0
29/08:00pm 8.4 3.9 4.0 74 1.9 NNE 17 20 9 11 1026.4 1026.6 0.0
29/07:30pm 8.6 4.4 3.8 72 2.1 N 15 20 8 11 1026.8 1027.0 0.0
29/07:00pm 8.6 4.8 4.0 73 2.0 N 13 17 7 9 1026.6 1026.8 0.0
29/06:30pm 8.9 4.0 3.9 71 2.2 N 19 24 10 13 1026.4 1026.6 0.0
29/06:00pm 8.9 4.7 3.9 71 2.2 N 15 20 8 11 1026.4 1026.6 0.0
29/05:30pm 9.5 5.3 3.9 68 2.4 N 15 17 8 9 1026.6 1026.8 0.0
29/05:00pm 10.3 6.6 4.7 68 2.5 N 13 15 7 8 1026.8 1027.0 0.0
29/04:30pm 10.9 7.3 4.8 66 2.8 N 13 17 7 9 1026.5 1026.7 0.0
29/04:00pm 11.1 7.0 4.6 64 3.0 N 15 20 8 11 1027.0 1027.2 0.0
29/03:30pm 11.5 6.4 4.0 60 3.3 NNW 20 28 11 15 1027.6 1027.8 0.0
29/03:00pm 11.4 5.5 3.9 60 3.3 NNW 24 30 13 16 1027.4 1027.6 0.0
29/02:30pm 12.4 7.4 4.4 58 3.6 NNW 20 30 11 16 1027.5 1027.7 0.0
29/02:00pm 11.5 5.6 3.8 59 3.4 N 24 32 13 17 1027.8 1028.0 0.0
29/01:30pm 11.2 4.9 3.7 60 3.3 N 26 33 14 18 1027.8 1028.0 0.0
29/01:00pm 11.2 5.5 4.7 64 3.0 N 24 32 13 17 1028.8 1029.0 0.0

Other Formats:

Comma delimited format used in spreadsheet applications
http://www.bom.gov.au/fwo/IDS60801/IDS60801.94690.axf

JavaScript Object Notation format (JSON) in row-major order
http://www.bom.gov.au/fwo/IDS60801/IDS60801.94690.json